BZN31 KTUS-KABQ
Flight info
| Callsign | BZN31 |
|---|---|
| Flight time | 0h 46m |
| Altitude | 37000 |
| Route | WLDKT4 SSO J104 TMACK/N0457F380 KALSE BRRTO1 |
| Aircraft | B38M/M-SDE1FGHILORVWXY/HB1 |
Departure
| Time | 2026-04-24 01:59 |
|---|---|
| Airport | Tucson International Airport (KTUS) |
Arrival
| Time | 2026-04-24 02:46 |
|---|---|
| Airport | Albuquerque International Sunport (KABQ) |
| Time | Latitude | Longitude | Altitude | Speed | Heading |
|---|---|---|---|---|---|
| 2026-04-24 01:05 | 32.11880 | -110.93766 | 2596 ft | 0 kts | 63° |
| 2026-04-24 01:28 | 32.11880 | -110.93767 | 2596 ft | 1 kts | 63° |
| 2026-04-24 01:29 | 32.11872 | -110.93791 | 2592 ft | 4 kts | 73° |
| 2026-04-24 01:29 | 32.11867 | -110.93815 | 2587 ft | 0 kts | 82° |
| 2026-04-24 01:38 | 36.08226 | -115.15277 | 2100 ft | 2 kts | 357° |
| 2026-04-24 01:39 | 32.11880 | -110.93768 | 2596 ft | 0 kts | 62° |
| 2026-04-24 01:50 | 32.11878 | -110.93773 | 2596 ft | 3 kts | 62° |
| 2026-04-24 01:50 | 32.11871 | -110.93792 | 2596 ft | 4 kts | 73° |
| 2026-04-24 01:51 | 32.11866 | -110.93823 | 2596 ft | 4 kts | 86° |
| 2026-04-24 01:51 | 32.11866 | -110.93839 | 2596 ft | 1 kts | 87° |
| 2026-04-24 01:51 | 32.11866 | -110.93840 | 2596 ft | 0 kts | 87° |
| 2026-04-24 01:53 | 32.11866 | -110.93833 | 2596 ft | 2 kts | 91° |
| 2026-04-24 01:54 | 32.11851 | -110.93794 | 2593 ft | 8 kts | 139° |
| 2026-04-24 01:54 | 32.11773 | -110.93792 | 2591 ft | 14 kts | 205° |
| 2026-04-24 01:54 | 32.11692 | -110.93785 | 2601 ft | 11 kts | 145° |
| 2026-04-24 01:54 | 32.11642 | -110.93728 | 2604 ft | 10 kts | 134° |
| 2026-04-24 01:55 | 32.11588 | -110.93664 | 2605 ft | 13 kts | 136° |
| 2026-04-24 01:55 | 32.11507 | -110.93572 | 2610 ft | 19 kts | 135° |
| 2026-04-24 01:55 | 32.11405 | -110.93452 | 2617 ft | 23 kts | 135° |
| 2026-04-24 01:55 | 32.11287 | -110.93314 | 2620 ft | 24 kts | 135° |
| 2026-04-24 01:56 | 32.11171 | -110.93177 | 2623 ft | 24 kts | 135° |
| 2026-04-24 01:56 | 32.11053 | -110.93040 | 2626 ft | 23 kts | 135° |
| 2026-04-24 01:56 | 32.10940 | -110.92907 | 2629 ft | 23 kts | 135° |
| 2026-04-24 01:56 | 32.10833 | -110.92781 | 2635 ft | 20 kts | 135° |
| 2026-04-24 01:57 | 32.10737 | -110.92668 | 2640 ft | 19 kts | 135° |
| 2026-04-24 01:57 | 32.10646 | -110.92562 | 2645 ft | 18 kts | 135° |
| 2026-04-24 01:57 | 32.10557 | -110.92458 | 2649 ft | 19 kts | 135° |
| 2026-04-24 01:57 | 32.10451 | -110.92333 | 2650 ft | 23 kts | 135° |
| 2026-04-24 01:58 | 32.10322 | -110.92244 | 2659 ft | 22 kts | 198° |
| 2026-04-24 01:58 | 32.10289 | -110.92388 | 2661 ft | 23 kts | 312° |
| 2026-04-24 01:58 | 32.10488 | -110.92623 | 2651 ft | 69 kts | 315° |
| 2026-04-24 01:58 | 32.10965 | -110.93186 | 2627 ft | 123 kts | 316° |
| 2026-04-24 01:59 | 32.11682 | -110.94022 | 2625 ft | 162 kts | 315° |
| 2026-04-24 01:59 | 32.12529 | -110.94937 | 3107 ft | 168 kts | 316° |
| 2026-04-24 01:59 | 32.13446 | -110.95926 | 3486 ft | 184 kts | 314° |
| 2026-04-24 01:59 | 32.14288 | -110.96960 | 4265 ft | 175 kts | 314° |
| 2026-04-24 02:00 | 32.15183 | -110.98060 | 4597 ft | 197 kts | 312° |
| 2026-04-24 02:00 | 32.16191 | -110.99283 | 4931 ft | 218 kts | 312° |
| 2026-04-24 02:00 | 32.17301 | -111.00618 | 5258 ft | 236 kts | 311° |
| 2026-04-24 02:00 | 32.18479 | -111.02025 | 5746 ft | 243 kts | 312° |
| 2026-04-24 02:01 | 32.19677 | -111.03458 | 6496 ft | 245 kts | 313° |
| 2026-04-24 02:01 | 32.21098 | -111.04622 | 7079 ft | 261 kts | 335° |
| 2026-04-24 02:01 | 32.22958 | -111.04966 | 7453 ft | 285 kts | 3° |
| 2026-04-24 02:01 | 32.24832 | -111.04192 | 8276 ft | 291 kts | 30° |
| 2026-04-24 02:02 | 32.26427 | -111.02650 | 8948 ft | 301 kts | 38° |
| 2026-04-24 02:02 | 32.28018 | -111.01031 | 9733 ft | 304 kts | 38° |
| 2026-04-24 02:02 | 32.29528 | -110.99227 | 10258 ft | 319 kts | 54° |
| 2026-04-24 02:02 | 32.30427 | -110.96744 | 10564 ft | 342 kts | 78° |
| 2026-04-24 02:03 | 32.30834 | -110.90950 | 11420 ft | 369 kts | 85° |
| 2026-04-24 02:03 | 32.31042 | -110.87908 | 12116 ft | 373 kts | 85° |
| 2026-04-24 02:03 | 32.31257 | -110.84822 | 12779 ft | 380 kts | 85° |
| 2026-04-24 02:04 | 32.31477 | -110.81686 | 13462 ft | 386 kts | 85° |
| 2026-04-24 02:04 | 32.31700 | -110.78498 | 14118 ft | 393 kts | 85° |
| 2026-04-24 02:04 | 32.31926 | -110.75273 | 14819 ft | 396 kts | 85° |
| 2026-04-24 02:04 | 32.32152 | -110.72013 | 15555 ft | 400 kts | 84° |
| 2026-04-24 02:05 | 32.32377 | -110.68721 | 16183 ft | 405 kts | 84° |
| 2026-04-24 02:05 | 32.32609 | -110.65391 | 16898 ft | 407 kts | 84° |
| 2026-04-24 02:05 | 32.32840 | -110.62047 | 17570 ft | 410 kts | 83° |
| 2026-04-24 02:05 | 32.33052 | -110.58675 | 18251 ft | 414 kts | 87° |
| 2026-04-24 02:06 | 32.32956 | -110.55253 | 18805 ft | 418 kts | 91° |
| 2026-04-24 02:06 | 32.32818 | -110.51807 | 19353 ft | 422 kts | 92° |
| 2026-04-24 02:06 | 32.32673 | -110.48327 | 19890 ft | 426 kts | 92° |
| 2026-04-24 02:06 | 32.32524 | -110.44815 | 20462 ft | 429 kts | 93° |
| 2026-04-24 02:07 | 32.32374 | -110.41285 | 21014 ft | 432 kts | 93° |
| 2026-04-24 02:07 | 32.32221 | -110.37719 | 21525 ft | 436 kts | 93° |
| 2026-04-24 02:07 | 32.32065 | -110.34117 | 22042 ft | 440 kts | 93° |
| 2026-04-24 02:07 | 32.31907 | -110.30492 | 22571 ft | 444 kts | 93° |
| 2026-04-24 02:08 | 32.31747 | -110.26833 | 23080 ft | 447 kts | 94° |
| 2026-04-24 02:08 | 32.31584 | -110.23149 | 23572 ft | 450 kts | 94° |
| 2026-04-24 02:08 | 32.31421 | -110.19483 | 23974 ft | 454 kts | 94° |
| 2026-04-24 02:08 | 32.31255 | -110.15758 | 24377 ft | 458 kts | 94° |
| 2026-04-24 02:09 | 32.31085 | -110.11986 | 24788 ft | 461 kts | 94° |
| 2026-04-24 02:09 | 32.30911 | -110.08146 | 25175 ft | 465 kts | 94° |
| 2026-04-24 02:09 | 32.30740 | -110.04362 | 25517 ft | 469 kts | 94° |
| 2026-04-24 02:09 | 32.30561 | -110.00496 | 25874 ft | 472 kts | 94° |
| 2026-04-24 02:10 | 32.30381 | -109.96609 | 26274 ft | 475 kts | 94° |
| 2026-04-24 02:10 | 32.30200 | -109.92702 | 26637 ft | 478 kts | 94° |
| 2026-04-24 02:10 | 32.30012 | -109.88712 | 26994 ft | 482 kts | 94° |
| 2026-04-24 02:10 | 32.29832 | -109.84766 | 27355 ft | 485 kts | 92° |
| 2026-04-24 02:11 | 32.30160 | -109.80858 | 27703 ft | 485 kts | 72° |
| 2026-04-24 02:11 | 32.31533 | -109.77253 | 28031 ft | 480 kts | 51° |
| 2026-04-24 02:11 | 32.33783 | -109.74399 | 28201 ft | 472 kts | 30° |
| 2026-04-24 02:11 | 32.36578 | -109.72447 | 28562 ft | 467 kts | 22° |
| 2026-04-24 02:12 | 32.39358 | -109.70375 | 28860 ft | 475 kts | 28° |
| 2026-04-24 02:12 | 32.42095 | -109.68174 | 29282 ft | 477 kts | 28° |
| 2026-04-24 02:12 | 32.44839 | -109.65932 | 29565 ft | 481 kts | 29° |
| 2026-04-24 02:12 | 32.47585 | -109.63662 | 29923 ft | 483 kts | 29° |
| 2026-04-24 02:13 | 32.50346 | -109.61373 | 30186 ft | 486 kts | 29° |
| 2026-04-24 02:13 | 32.53120 | -109.59067 | 30446 ft | 489 kts | 29° |
| 2026-04-24 02:13 | 32.55913 | -109.56746 | 30711 ft | 492 kts | 28° |
| 2026-04-24 02:13 | 32.58724 | -109.54406 | 30965 ft | 495 kts | 28° |
| 2026-04-24 02:14 | 32.61552 | -109.52051 | 31221 ft | 498 kts | 28° |
| 2026-04-24 02:14 | 32.64398 | -109.49678 | 31478 ft | 501 kts | 28° |
| 2026-04-24 02:14 | 32.67249 | -109.47297 | 31755 ft | 504 kts | 28° |
| 2026-04-24 02:14 | 32.70118 | -109.44901 | 32086 ft | 505 kts | 28° |
| 2026-04-24 02:15 | 32.73004 | -109.42491 | 32343 ft | 508 kts | 28° |
| 2026-04-24 02:15 | 32.75895 | -109.40074 | 32650 ft | 509 kts | 27° |
| 2026-04-24 02:15 | 32.78796 | -109.37652 | 32991 ft | 510 kts | 27° |
| 2026-04-24 02:15 | 32.81698 | -109.35225 | 33318 ft | 511 kts | 27° |
| 2026-04-24 02:16 | 32.84568 | -109.32823 | 33646 ft | 511 kts | 26° |
| 2026-04-24 02:16 | 32.87477 | -109.30382 | 33938 ft | 512 kts | 27° |
| 2026-04-24 02:16 | 32.90381 | -109.27940 | 34239 ft | 511 kts | 26° |
| 2026-04-24 02:16 | 32.93296 | -109.25501 | 34477 ft | 513 kts | 26° |
| 2026-04-24 02:17 | 32.96214 | -109.23046 | 34749 ft | 513 kts | 27° |
| 2026-04-24 02:17 | 32.99110 | -109.20604 | 35229 ft | 507 kts | 28° |
| 2026-04-24 02:17 | 33.01992 | -109.18188 | 35602 ft | 506 kts | 27° |
| 2026-04-24 02:17 | 33.04866 | -109.15766 | 35818 ft | 507 kts | 27° |
| 2026-04-24 02:18 | 33.07733 | -109.13347 | 36045 ft | 507 kts | 27° |
| 2026-04-24 02:18 | 33.10622 | -109.10911 | 36264 ft | 508 kts | 27° |
| 2026-04-24 02:18 | 33.13513 | -109.08467 | 36402 ft | 511 kts | 27° |
| 2026-04-24 02:18 | 33.16413 | -109.06012 | 36587 ft | 512 kts | 27° |
| 2026-04-24 02:19 | 33.19317 | -109.03554 | 36846 ft | 511 kts | 27° |
| 2026-04-24 02:19 | 33.22224 | -109.01097 | 36889 ft | 512 kts | 26° |
| 2026-04-24 02:19 | 33.28009 | -108.96201 | 36849 ft | 509 kts | 28° |
| 2026-04-24 02:20 | 33.33768 | -108.91287 | 36843 ft | 510 kts | 27° |
| 2026-04-24 02:20 | 33.39542 | -108.86368 | 36880 ft | 510 kts | 27° |
| 2026-04-24 02:21 | 33.45311 | -108.81448 | 36869 ft | 509 kts | 27° |
| 2026-04-24 02:21 | 33.51030 | -108.76562 | 36844 ft | 509 kts | 28° |
| 2026-04-24 02:22 | 33.56781 | -108.71640 | 36876 ft | 507 kts | 28° |
| 2026-04-24 02:22 | 33.62508 | -108.66732 | 36860 ft | 506 kts | 28° |
| 2026-04-24 02:23 | 33.68237 | -108.61813 | 36865 ft | 507 kts | 28° |
| 2026-04-24 02:23 | 33.73957 | -108.56893 | 36852 ft | 506 kts | 28° |
| 2026-04-24 02:24 | 33.79686 | -108.51959 | 36856 ft | 506 kts | 28° |
| 2026-04-24 02:24 | 33.85406 | -108.47022 | 36864 ft | 506 kts | 28° |
| 2026-04-24 02:25 | 33.90156 | -108.42917 | 36842 ft | 505 kts | 28° |
| 2026-04-24 02:25 | 33.95902 | -108.38003 | 36814 ft | 508 kts | 28° |
| 2026-04-24 02:26 | 34.01664 | -108.33070 | 36831 ft | 508 kts | 28° |
| 2026-04-24 02:26 | 34.07414 | -108.28108 | 36799 ft | 507 kts | 28° |
| 2026-04-24 02:27 | 34.13167 | -108.23193 | 36861 ft | 508 kts | 28° |
| 2026-04-24 02:27 | 34.18899 | -108.18263 | 36812 ft | 506 kts | 28° |
| 2026-04-24 02:28 | 34.24626 | -108.13326 | 36170 ft | 504 kts | 28° |
| 2026-04-24 02:28 | 34.27488 | -108.10856 | 35263 ft | 509 kts | 29° |
| 2026-04-24 02:28 | 34.30381 | -108.08357 | 34334 ft | 516 kts | 29° |
| 2026-04-24 02:29 | 34.33309 | -108.05825 | 33481 ft | 519 kts | 30° |
| 2026-04-24 02:29 | 34.36247 | -108.03284 | 32591 ft | 520 kts | 29° |
| 2026-04-24 02:29 | 34.39188 | -108.00737 | 31858 ft | 518 kts | 29° |
| 2026-04-24 02:29 | 34.42105 | -107.98207 | 31295 ft | 513 kts | 29° |
| 2026-04-24 02:30 | 34.44998 | -107.95698 | 30726 ft | 509 kts | 29° |
| 2026-04-24 02:30 | 34.47866 | -107.93207 | 30077 ft | 507 kts | 29° |
| 2026-04-24 02:30 | 34.50734 | -107.90715 | 29323 ft | 506 kts | 29° |
| 2026-04-24 02:30 | 34.53582 | -107.88236 | 28663 ft | 502 kts | 29° |
| 2026-04-24 02:31 | 34.56407 | -107.85778 | 28116 ft | 496 kts | 29° |
| 2026-04-24 02:31 | 34.59174 | -107.83366 | 27905 ft | 483 kts | 29° |
| 2026-04-24 02:31 | 34.61729 | -107.80801 | 27340 ft | 489 kts | 41° |
| 2026-04-24 02:31 | 34.63720 | -107.77418 | 26670 ft | 499 kts | 59° |
| 2026-04-24 02:32 | 34.65279 | -107.73664 | 26080 ft | 496 kts | 59° |
| 2026-04-24 02:32 | 34.66879 | -107.69961 | 25377 ft | 496 kts | 58° |
| 2026-04-24 02:32 | 34.68476 | -107.66261 | 24676 ft | 493 kts | 58° |
| 2026-04-24 02:32 | 34.70046 | -107.62616 | 24035 ft | 480 kts | 58° |
| 2026-04-24 02:33 | 34.71594 | -107.59017 | 23380 ft | 480 kts | 58° |
| 2026-04-24 02:33 | 34.73141 | -107.55414 | 22595 ft | 481 kts | 59° |
| 2026-04-24 02:33 | 34.74682 | -107.51826 | 21924 ft | 475 kts | 59° |
| 2026-04-24 02:33 | 34.76187 | -107.48315 | 21306 ft | 461 kts | 59° |
| 2026-04-24 02:34 | 34.77644 | -107.44911 | 20687 ft | 448 kts | 59° |
| 2026-04-24 02:34 | 34.79060 | -107.41601 | 20081 ft | 437 kts | 59° |
| 2026-04-24 02:34 | 34.80445 | -107.38360 | 19455 ft | 428 kts | 60° |
| 2026-04-24 02:34 | 34.81811 | -107.35164 | 18727 ft | 423 kts | 60° |
| 2026-04-24 02:35 | 34.83150 | -107.32027 | 18226 ft | 412 kts | 60° |
| 2026-04-24 02:35 | 34.84446 | -107.28980 | 17768 ft | 400 kts | 60° |
| 2026-04-24 02:35 | 34.85683 | -107.25994 | 17340 ft | 387 kts | 61° |
| 2026-04-24 02:35 | 34.86867 | -107.23137 | 17076 ft | 371 kts | 61° |
| 2026-04-24 02:36 | 34.88013 | -107.20373 | 16696 ft | 361 kts | 60° |
| 2026-04-24 02:36 | 34.89132 | -107.17674 | 16306 ft | 356 kts | 61° |
| 2026-04-24 02:36 | 34.89993 | -107.14841 | 15782 ft | 362 kts | 79° |
| 2026-04-24 02:36 | 34.90354 | -107.11863 | 15450 ft | 360 kts | 81° |
| 2026-04-24 02:37 | 34.90730 | -107.08855 | 15064 ft | 359 kts | 81° |
| 2026-04-24 02:37 | 34.91097 | -107.05846 | 14675 ft | 359 kts | 81° |
| 2026-04-24 02:37 | 34.91458 | -107.02839 | 14281 ft | 359 kts | 82° |
| 2026-04-24 02:37 | 34.91816 | -106.99835 | 13889 ft | 359 kts | 81° |
| 2026-04-24 02:38 | 34.92174 | -106.96826 | 13483 ft | 359 kts | 81° |
| 2026-04-24 02:38 | 34.92531 | -106.93814 | 13036 ft | 360 kts | 81° |
| 2026-04-24 02:38 | 34.92888 | -106.90796 | 12621 ft | 359 kts | 81° |
| 2026-04-24 02:38 | 34.93243 | -106.87789 | 12219 ft | 358 kts | 81° |
| 2026-04-24 02:39 | 34.93595 | -106.84796 | 11931 ft | 354 kts | 81° |
| 2026-04-24 02:39 | 34.93939 | -106.81869 | 11529 ft | 344 kts | 80° |
| 2026-04-24 02:39 | 34.94271 | -106.79031 | 11173 ft | 333 kts | 80° |
| 2026-04-24 02:39 | 34.94594 | -106.76276 | 10825 ft | 324 kts | 79° |
| 2026-04-24 02:40 | 34.94906 | -106.73596 | 10485 ft | 315 kts | 79° |
| 2026-04-24 02:40 | 34.95202 | -106.71005 | 10234 ft | 301 kts | 81° |
| 2026-04-24 02:40 | 34.95316 | -106.68532 | 9977 ft | 285 kts | 84° |
| 2026-04-24 02:40 | 34.95403 | -106.66181 | 9643 ft | 269 kts | 83° |
| 2026-04-24 02:41 | 34.95460 | -106.64002 | 9338 ft | 245 kts | 85° |
| 2026-04-24 02:41 | 34.95485 | -106.62052 | 9070 ft | 221 kts | 85° |
| 2026-04-24 02:41 | 34.95510 | -106.60282 | 8876 ft | 202 kts | 84° |
| 2026-04-24 02:41 | 34.95556 | -106.58593 | 8687 ft | 198 kts | 80° |
| 2026-04-24 02:42 | 34.95764 | -106.56957 | 8446 ft | 193 kts | 70° |
| 2026-04-24 02:42 | 34.96212 | -106.55443 | 8227 ft | 187 kts | 57° |
| 2026-04-24 02:42 | 34.96891 | -106.54132 | 8001 ft | 181 kts | 43° |
| 2026-04-24 02:42 | 34.97767 | -106.53078 | 7762 ft | 174 kts | 30° |
| 2026-04-24 02:43 | 34.98778 | -106.52323 | 7562 ft | 168 kts | 17° |
| 2026-04-24 02:43 | 34.99818 | -106.51691 | 7338 ft | 167 kts | 20° |
| 2026-04-24 02:43 | 35.00844 | -106.51019 | 7154 ft | 167 kts | 17° |
| 2026-04-24 02:43 | 35.01927 | -106.50634 | 6951 ft | 158 kts | 357° |
| 2026-04-24 02:44 | 35.02983 | -106.50832 | 6693 ft | 152 kts | 333° |
| 2026-04-24 02:44 | 35.03828 | -106.51556 | 6515 ft | 148 kts | 311° |
| 2026-04-24 02:44 | 35.04308 | -106.52659 | 6301 ft | 151 kts | 285° |
| 2026-04-24 02:44 | 35.04366 | -106.53945 | 6129 ft | 150 kts | 270° |
| 2026-04-24 02:45 | 35.04391 | -106.55237 | 5953 ft | 160 kts | 270° |
| 2026-04-24 02:45 | 35.04392 | -106.56616 | 5724 ft | 164 kts | 271° |
| 2026-04-24 02:45 | 35.04406 | -106.57994 | 5537 ft | 157 kts | 270° |
| 2026-04-24 02:45 | 35.04412 | -106.59161 | 5517 ft | 111 kts | 271° |
| 2026-04-24 02:46 | 35.04422 | -106.59917 | 5507 ft | 53 kts | 271° |
| 2026-04-24 02:46 | 35.04494 | -106.60234 | 5508 ft | 27 kts | 299° |
| 2026-04-24 02:46 | 35.04556 | -106.60364 | 5509 ft | 1 kts | 302° |
| 2026-04-24 02:46 | 35.04567 | -106.60390 | 5503 ft | 6 kts | 291° |
| 2026-04-24 02:47 | 35.04577 | -106.60473 | 5502 ft | 13 kts | 270° |
| 2026-04-24 02:47 | 35.04577 | -106.60613 | 5502 ft | 19 kts | 270° |
| 2026-04-24 02:47 | 35.04578 | -106.60776 | 5504 ft | 20 kts | 270° |
| 2026-04-24 02:47 | 35.04579 | -106.60950 | 5501 ft | 21 kts | 270° |
| 2026-04-24 02:48 | 35.04580 | -106.61135 | 5500 ft | 22 kts | 268° |
| 2026-04-24 02:48 | 35.04577 | -106.61292 | 5496 ft | 11 kts | 270° |
| 2026-04-24 02:48 | 35.04587 | -106.61381 | 5500 ft | 11 kts | 299° |
| 2026-04-24 02:48 | 35.04627 | -106.61423 | 5500 ft | 4 kts | 340° |
| 2026-04-24 02:49 | 35.04642 | -106.61430 | 5497 ft | 1 kts | 340° |
| 2026-04-24 02:49 | 35.04645 | -106.61431 | 5499 ft | 0 kts | 340° |
| 2026-04-24 02:49 | 35.04646 | -106.61431 | 5499 ft | 1 kts | 340° |
| 2026-04-24 02:49 | 35.04675 | -106.61442 | 5502 ft | 5 kts | 343° |
| 2026-04-24 02:50 | 35.04695 | -106.61450 | 5502 ft | 2 kts | 342° |
| 2026-04-24 02:50 | 35.04697 | -106.61451 | 5502 ft | 0 kts | 343° |
| 2026-04-24 02:51 | 35.04702 | -106.61453 | 5503 ft | 0 kts | 342° |